METAR Data
IDs: Format: Raw Decoded Include TAF

Data at: 2226 UTC 25 Oct 2021

PAFA 252153Z 00000KT 8SM BKN011 OVC018 00/M04 A2923 RMK AO2 SLP906 T00001039 $
PAFA 252053Z 00000KT 8SM BKN011 OVC018 M02/M04 A2923 RMK AO2 SLP908 6//// T10171044 $
PAFA 251953Z 00000KT 10SM BKN011 OVC018 M02/M04 A2924 RMK AO2 SLP910 T10171044 $
PAFA 251852Z 03003KT 10SM BKN012 OVC024 M02/M05 A2924 RMK AO2 SLP910 T10221050 PNO VISNO NE $
PAFA 251753Z 00000KT 10SM BKN012 BKN024 OVC036 M02/M05 A2924 RMK AO2 SLP910 60000 T10221050 11022 21033 56005
PAFA 251745Z 00000KT 10SM BKN012 BKN024 OVC036 M02/M05 A2924 RMK AO2 T10221050
PAFA 251653Z 05003KT 10SM BKN024 OVC038 M03/M06 A2924 RMK AO2 SLP910 T10281056 $
PAFA 251553Z 00000KT 10SM BKN020 OVC040 M03/M05 A2925 RMK AO2 SNE52 SLP912 P0000 T10281050 $
PAFA 251453Z 00000KT 9SM -SN BKN022 OVC040 M03/M05 A2925 RMK AO2 SLP914 PCPN VRY LGT P0000 60000 T10281050 56008 $
PAFA 251353Z 00000KT 9SM -SN FEW006 SCT012 OVC028 M03/M06 A2926 RMK AO2 SLP916 PCPN VRY LGT P0000 T10281056 $
PAFA 251253Z 00000KT 9SM -SN SCT013 OVC030 M03/M06 A2927 RMK AO2 SLP919 PCPN VRY LGT P0000 T10331056 $
PAFA 251153Z 00000KT 9SM -SN SCT013 OVC030 M03/M06 A2928 RMK AO2 SLP923 PCPN VRY LGT P0000 60001 70002 T10331061 11033 21044 56012 $
PAFA 251053Z 00000KT 9SM -SN BKN020 BKN035 OVC070 M04/M06 A2929 RMK AO2 SLP927 P0000 T10391061 $
PAFA 250953Z 00000KT 9SM -SN BKN020 BKN030 OVC075 M04/M07 A2930 RMK AO2 SLP931 P0000 T10391067 $
PAFA 250853Z 00000KT 9SM -SN SCT009 BKN032 OVC070 M04/M07 A2931 RMK AO2 SLP936 P0000 60001 T10391067 410331067 $
PAFA 250752Z 03003KT 4SM -SN BR BKN007 BKN032 BKN055 M04/M07 A2932 RMK AO2 SNB44 SLP938 P0001 T10391067 $
PAFA 250653Z 00000KT 2SM -SN BR BKN007 BKN023 OVC038 M04/M06 A2933 RMK AO2 SFC VIS 4 SLP942 P0000 T10391061 $
PAFA 250605Z 00000KT 2 1/2SM -SN BR BKN009 BKN035 OVC050 M03/M06 A2935 RMK AO2 P0000 T10331061 $
PAFA 250558Z 00000KT 4SM -SN BR BKN009 BKN041 OVC055 M03/M06 A2935 RMK AO2 P0000 T10331061 $
PAFA 250553Z 00000KT 6SM -SN BR SCT009 BKN041 OVC055 M03/M06 A2935 RMK AO2 SLP948 P0001 60001 T10331061 11033 21039 58013 $
PAFA 250542Z 00000KT 6SM -SN BR BKN009 BKN055 OVC075 M03/M06 A2935 RMK AO2 P0001 T10331061 $
PAFA 250459Z 00000KT 5SM -SN BR SCT007 BKN050 OVC060 M04/M06 A2936 RMK AO2 P0001 T10391061 $
PAFA 250453Z 00000KT 5SM -SN BR BKN007 BKN038 OVC047 M04/M07 A2936 RMK AO2 SLP953 P0000 T10391067 $
PAFA 250353Z 00000KT 6SM -SN BR BKN007 OVC049 M04/M07 A2937 RMK AO2 SLP957 P0000 T10391067 $
PAFA 250253Z 00000KT 6SM -SN BR BKN007 BKN018 OVC055 M04/M06 A2939 RMK AO2 SLP961 P0000 60000 T10391061 58013 $
PAFA 250237Z 00000KT 6SM -SN BR BKN007 BKN018 OVC035 M04/M06 A2939 RMK AO2 P0000 T10391056 $
PAFA 250153Z 00000KT 6SM -SN BR BKN010 BKN018 OVC035 M04/M06 A2940 RMK AO2 SLP967 P0000 T10391061 $
PAFA 250140Z 00000KT 4SM -SN BR SCT010 OVC016 M03/M06 A2941 RMK AO2 P0000 T10331061 $
PAFA 250103Z 00000KT 1SM R02L/P6000FT -SN BR SCT008 OVC017 M04/M06 A2941 RMK AO2 P0000 T10391061 $
PAFA 250053Z 00000KT 1SM R02L/P6000FT -SN BR BKN005 BKN010 OVC017 M04/M06 A2941 RMK AO2 SLP970 P0000 T10391061 $
PAFA 250032Z 00000KT 1SM R02L/P6000FT -SN BR SCT003 OVC005 M04/M06 A2942 RMK AO2 SFC VIS 1 1/2 P0000 T10391056 $
PAFA 242353Z 00000KT 1SM R02L/P6000FT -SN BR OVC003 M04/M06 A2943 RMK AO2 SNB16 SLP974 P0000 60000 I6000 T10391056 11039 21056 58008 $
PAFA 242253Z 00000KT 1SM R02L/P6000FT BR OVC004 M04/M06 A2944 RMK AO2 SFC VIS 3 DZE06 SLP978 P0000 T10391061 $
PAFA 242223Z 00000KT 1SM R02L/4500VP6000FT BR OVC003 M04/M06 A2944 RMK AO2 SFC VIS 5 DZE06 P0000 T10391056 $
PAFA 242210Z 00000KT 1/2SM R02L/4000VP6000FT FZFG OVC003 M04/M06 A2944 RMK AO2 TWR VIS 1 DZE06 P0000 T10391056 $
PAFA 242153Z COR 00000KT 1SM R02L/P6000FT -DZ BR OVC003 M04/M06 A2944 RMK AO2 SLP980 DZB44 P0000 T10391056 $
PAFA 242150Z 13003KT 1SM R02L/P6000FT -FZDZ BR OVC003 M04/M06 A2944 RMK AO2 DZB45E47FZDZB49 P0000 I1000 $
PAFA 242053Z 07003KT 8SM OVC003 M04/M06 A2945 RMK AO2 SLP982 T10391061 50004
PAFA 242045Z 07003KT 7SM OVC003 M04/M06 A2945 RMK AO2 T10391061
PAFA 242023Z 00000KT 1SM R02L/1600VP6000FT BR VV003 M04/M06 A2945 RMK AO2 VIS 1/4V5 T10441061
PAFA 242010Z 00000KT 1/4SM R02L/5000VP6000FT FZFG VV003 M04/M06 A2945 RMK AO2 T10441061
PAFA 241953Z 00000KT 1 3/4SM BR OVC004 M04/M07 A2945 RMK AO2 TWR VIS 4 VIS 1V5 SLP983 T10441067
PAFA 241920Z 00000KT 10SM OVC005 M05/M07 A2945 RMK AO2 T10501072
PAFA 241853Z 00000KT 10SM OVC004 M05/M07 A2944 RMK AO2 SLP980 T10501072
PAFA 241753Z 00000KT 10SM BKN004 OVC100 M05/M08 A2944 RMK AO2 SLP978 T10501078 11039 21056 51009
PAFA 241653Z 00000KT 10SM FEW040 BKN100 BKN170 M05/M07 A2943 RMK AO2 SLP975 T10501072
PAFA 241553Z 19004KT 10SM FEW040 BKN110 BKN150 M04/M07 A2942 RMK AO2 SLP972 T10441067
PAFA 241453Z 00000KT 10SM FEW040 BKN110 BKN150 M04/M07 A2941 RMK AO2 SLP968 T10441072 53013
PAFA 241353Z 00000KT 10SM FEW040 BKN140 BKN200 M05/M07 A2939 RMK AO2 SLP962 T10501072
PAFA 241253Z 00000KT 10SM FEW004 FEW040 BKN140 BKN200 M05/M07 A2938 RMK AO2 SLP959 T10501072
PAFA 241153Z 00000KT 10SM FEW004 BKN140 BKN200 M06/M08 A2937 RMK AO2 SLP953 T10561078 11039 21067 51018
PAFA 241053Z 19003KT 10SM BKN130 BKN200 M06/M09 A2936 RMK AO2 SLP950 T10611089